createdAt,value
2019-06-08T06:54:54.880Z,32.58
2019-06-08T06:57:53.585Z,32.37
2019-06-08T07:00:40.963Z,32.31
2019-06-08T07:03:29.965Z,32.27
2019-06-08T07:06:10.580Z,32.23
2019-06-08T07:08:50.253Z,32.25
2019-06-08T07:11:29.615Z,32.23
2019-06-08T07:14:07.862Z,32.23
2019-06-08T07:16:45.800Z,32.17
2019-06-08T07:19:23.071Z,32.53
2019-06-08T07:22:02.228Z,32.19
2019-06-08T07:24:44.325Z,32.10
2019-06-08T07:27:22.146Z,32.04
2019-06-08T07:30:06.597Z,32.00
2019-06-08T07:32:56.644Z,31.97
2019-06-08T07:35:35.405Z,31.94
2019-06-08T07:38:16.178Z,31.95
2019-06-08T07:40:59.871Z,31.90
2019-06-08T07:43:37.247Z,31.88
2019-06-08T07:46:23.897Z,31.87
2019-06-08T07:49:04.176Z,31.84
2019-06-08T07:51:58.921Z,31.82
2019-06-08T07:54:43.623Z,31.82
2019-06-08T07:57:31.049Z,31.83
2019-06-08T08:00:18.062Z,31.82
2019-06-08T08:02:58.293Z,31.79
2019-06-08T08:05:38.171Z,31.79
2019-06-08T08:08:17.462Z,31.78
2019-06-08T08:10:56.718Z,31.76
2019-06-08T08:13:38.224Z,31.76
2019-06-08T08:16:18.673Z,31.77
2019-06-08T08:19:00.821Z,31.76
2019-06-08T08:21:41.735Z,31.76
2019-06-08T08:24:21.181Z,31.75
2019-06-08T08:27:03.823Z,31.75
2019-06-08T08:29:44.737Z,31.73
2019-06-08T08:32:28.371Z,31.73
2019-06-08T08:35:08.570Z,31.73
2019-06-08T08:37:47.422Z,31.73
2019-06-08T08:40:28.198Z,31.73
2019-06-08T08:43:05.827Z,31.74
2019-06-08T08:45:44.460Z,31.72
2019-06-08T08:48:28.213Z,31.71
2019-06-08T08:51:03.958Z,31.73
2019-06-08T08:53:41.487Z,31.70
2019-06-08T08:56:18.365Z,31.71
2019-06-08T08:59:02.501Z,31.71
2019-06-08T09:01:40.146Z,31.70
2019-06-08T09:04:18.552Z,31.69
2019-06-08T09:06:58.813Z,31.69
2019-06-08T09:09:38.436Z,31.70
2019-06-08T09:12:18.055Z,31.69
2019-06-08T09:14:58.900Z,31.69
2019-06-08T09:17:38.829Z,31.69
2019-06-08T09:20:19.271Z,31.67
2019-06-08T09:23:06.736Z,31.68
2019-06-08T09:25:40.408Z,31.68
2019-06-08T09:28:23.089Z,31.68
2019-06-08T09:31:05.269Z,31.68
2019-06-08T09:33:42.320Z,31.68
2019-06-08T09:36:24.155Z,31.68
2019-06-08T09:39:04.448Z,31.69
2019-06-08T09:41:44.030Z,31.68
2019-06-08T09:44:23.598Z,31.67
2019-06-08T09:47:07.860Z,31.68
2019-06-08T09:49:44.443Z,31.68
2019-06-08T09:52:23.004Z,31.67
2019-06-08T09:55:02.860Z,31.68
2019-06-08T09:57:38.478Z,31.70
2019-06-08T10:00:25.355Z,31.70
2019-06-08T10:03:04.598Z,31.69
2019-06-08T10:05:41.158Z,31.70
2019-06-08T10:08:21.590Z,31.72
2019-06-08T10:11:01.594Z,31.76
2019-06-08T10:13:42.276Z,31.81
2019-06-08T10:16:18.797Z,31.88
2019-06-08T10:19:00.419Z,31.95
2019-06-08T10:21:42.950Z,32.01
2019-06-08T10:24:20.366Z,32.06
2019-06-08T10:26:59.282Z,32.11
2019-06-08T10:29:38.312Z,32.15
2019-06-08T10:32:18.015Z,32.20
2019-06-08T10:35:00.010Z,32.25
2019-06-08T10:37:40.930Z,32.27
2019-06-08T10:40:19.135Z,32.30
2019-06-08T10:42:59.842Z,32.33
2019-06-08T10:45:37.025Z,32.37
2019-06-08T10:48:14.341Z,32.37
2019-06-08T10:50:51.844Z,32.40
2019-06-08T10:53:46.570Z,32.42
2019-06-08T10:56:20.969Z,32.46
2019-06-08T10:59:01.599Z,32.49
2019-06-08T11:01:40.926Z,32.49
2019-06-08T11:04:23.082Z,32.49
2019-06-08T11:07:07.208Z,32.87
2019-06-08T11:09:48.235Z,32.57
2019-06-08T11:12:28.346Z,32.49
2019-06-08T11:15:11.786Z,32.50
2019-06-08T11:17:51.117Z,32.47
2019-06-08T11:20:30.749Z,32.47
2019-06-08T11:23:12.543Z,32.46
2019-06-08T11:25:53.997Z,32.47
2019-06-08T11:28:38.300Z,32.49
2019-06-08T11:31:19.872Z,32.51
2019-06-08T11:34:03.800Z,32.52
2019-06-08T11:36:41.725Z,32.51
2019-06-08T11:39:19.618Z,32.52
2019-06-08T11:41:58.794Z,32.55
2019-06-08T11:44:39.069Z,32.57
2019-06-08T11:47:18.172Z,32.64
2019-06-08T11:49:58.511Z,32.64
2019-06-08T11:52:39.958Z,32.65
2019-06-08T11:55:24.091Z,32.62
2019-06-08T11:58:22.614Z,32.67
2019-06-08T12:01:15.293Z,32.64
2019-06-08T12:04:05.881Z,32.67
2019-06-08T12:07:06.386Z,32.67
2019-06-08T12:09:44.918Z,32.69
2019-06-08T12:12:38.336Z,32.70
2019-06-08T12:15:41.948Z,32.71
2019-06-08T12:18:30.636Z,32.73
2019-06-08T12:21:14.604Z,32.74
2019-06-08T12:23:59.317Z,32.74
2019-06-08T12:26:54.788Z,32.73
2019-06-08T12:29:50.083Z,32.73
2019-06-08T12:32:35.887Z,32.72
2019-06-08T12:35:15.476Z,32.72
2019-06-08T12:38:09.624Z,32.73
2019-06-08T12:40:51.446Z,32.70
2019-06-08T12:43:31.912Z,32.68
2019-06-08T12:46:11.119Z,32.68
2019-06-08T12:48:55.323Z,32.65
2019-06-08T12:51:37.968Z,32.63
2019-06-08T12:54:20.806Z,32.62
2019-06-08T12:57:00.922Z,32.59
2019-06-08T12:59:45.559Z,32.57
2019-06-08T13:02:28.948Z,32.56
2019-06-08T13:05:18.978Z,32.53
2019-06-08T13:07:58.814Z,32.52
2019-06-08T13:10:38.223Z,32.53
2019-06-08T13:13:24.179Z,32.50
2019-06-08T13:16:04.658Z,32.47
2019-06-08T13:18:49.684Z,32.46
2019-06-08T13:21:35.305Z,32.45
2019-06-08T13:24:17.265Z,32.48
2019-06-08T13:27:01.733Z,32.47
2019-06-08T13:29:48.926Z,32.47
2019-06-08T13:32:28.893Z,32.51
2019-06-08T13:35:10.314Z,32.54
2019-06-08T13:37:50.079Z,32.55
2019-06-08T13:40:40.210Z,32.55
2019-06-08T13:43:25.377Z,32.58
2019-06-08T13:46:09.067Z,32.62
2019-06-08T13:49:00.167Z,32.60
2019-06-08T13:51:44.588Z,32.62
2019-06-08T13:54:43.785Z,32.66
2019-06-08T13:57:25.891Z,32.66
2019-06-08T14:00:11.754Z,32.70
2019-06-08T14:03:01.044Z,32.72
2019-06-08T14:05:50.644Z,32.73
2019-06-08T14:08:43.217Z,32.73
2019-06-08T14:11:47.647Z,32.74
2019-06-08T14:14:26.018Z,32.75
2019-06-08T14:17:13.826Z,32.73
2019-06-08T14:19:54.987Z,32.72
2019-06-08T14:22:42.873Z,32.71
2019-06-08T14:25:26.555Z,32.70
2019-06-08T14:28:08.836Z,32.70
2019-06-08T14:30:54.724Z,32.68
2019-06-08T14:33:45.121Z,32.67
2019-06-08T14:36:41.018Z,32.67
2019-06-08T14:39:30.001Z,32.69
2019-06-08T14:42:14.412Z,32.68
2019-06-08T14:45:10.974Z,32.67
2019-06-08T14:48:01.404Z,32.68
2019-06-08T14:51:04.136Z,32.67
2019-06-08T14:53:48.441Z,32.65
2019-06-08T14:56:37.535Z,32.68
2019-06-08T14:59:30.075Z,32.68
2019-06-08T15:02:23.562Z,32.64
2019-06-08T15:05:07.827Z,32.64
2019-06-08T15:08:17.555Z,32.64
2019-06-08T15:10:49.644Z,32.62
2019-06-08T15:13:31.217Z,32.62
2019-06-08T15:16:10.698Z,32.62
2019-06-08T15:19:00.090Z,32.62
2019-06-08T15:21:50.719Z,32.60
2019-06-08T15:24:33.232Z,32.59
2019-06-08T15:27:12.224Z,32.59
2019-06-08T15:29:55.743Z,32.60
2019-06-08T15:32:50.290Z,32.59
2019-06-08T15:35:37.762Z,32.58
2019-06-08T15:38:23.834Z,32.62
2019-06-08T15:41:20.744Z,32.60
2019-06-08T15:43:58.753Z,32.59
2019-06-08T15:46:53.744Z,32.58
2019-06-08T15:49:44.355Z,32.56
2019-06-08T15:52:24.398Z,32.56
2019-06-08T15:55:12.240Z,32.55
2019-06-08T15:57:54.966Z,32.54
2019-06-08T16:00:34.551Z,32.55
2019-06-08T16:03:15.287Z,32.53
2019-06-08T16:05:56.853Z,32.51
2019-06-08T16:08:40.717Z,32.53
2019-06-08T16:11:26.425Z,32.52
2019-06-08T16:14:05.830Z,32.52
2019-06-08T16:16:47.560Z,32.52
2019-06-08T16:19:35.967Z,32.53
2019-06-08T16:22:22.150Z,32.51
2019-06-08T16:25:11.510Z,32.51
2019-06-08T16:27:53.296Z,32.50
2019-06-08T16:30:39.426Z,32.50
2019-06-08T16:33:20.100Z,32.50
2019-06-08T16:36:04.946Z,32.50
2019-06-08T16:38:48.530Z,32.48
2019-06-08T16:41:33.968Z,32.48
2019-06-08T16:44:19.097Z,32.48
2019-06-08T16:47:14.324Z,32.50
2019-06-08T16:50:02.954Z,32.50
2019-06-08T16:52:45.435Z,32.48
2019-06-08T16:55:38.436Z,32.46
2019-06-08T16:58:16.760Z,32.47
2019-06-08T17:00:56.388Z,32.49
2019-06-08T17:03:36.988Z,32.46
2019-06-08T17:06:18.319Z,32.45
2019-06-08T17:09:09.582Z,32.45
2019-06-08T17:11:54.558Z,32.45
2019-06-08T17:14:36.415Z,32.45
2019-06-08T17:17:15.050Z,32.45
2019-06-08T17:19:54.607Z,32.44
2019-06-08T17:22:36.822Z,32.45
2019-06-08T17:25:27.597Z,32.45
2019-06-08T17:28:15.205Z,32.44
2019-06-08T17:30:57.480Z,32.43
2019-06-08T17:33:39.420Z,32.42
2019-06-08T17:36:20.148Z,32.40
2019-06-08T17:39:01.578Z,32.40
2019-06-08T17:41:49.008Z,32.41
2019-06-08T17:44:38.444Z,32.40
2019-06-08T17:47:25.726Z,32.40
2019-06-08T17:50:10.352Z,32.41
2019-06-08T17:53:07.913Z,32.39
2019-06-08T17:55:48.849Z,32.39
2019-06-08T17:58:45.391Z,32.39
2019-06-08T18:01:39.746Z,32.38
2019-06-08T18:04:33.512Z,32.41
2019-06-08T18:07:20.053Z,32.39
2019-06-08T18:10:11.844Z,32.75
2019-06-08T18:12:55.007Z,32.49
2019-06-08T18:15:41.850Z,32.40
2019-06-08T18:18:28.300Z,32.38
2019-06-08T18:21:19.654Z,32.36
2019-06-08T18:24:02.701Z,32.36
2019-06-08T18:26:44.731Z,32.37
2019-06-08T18:29:27.540Z,32.36
2019-06-08T18:32:07.618Z,32.37
2019-06-08T18:34:53.658Z,32.36
2019-06-08T18:37:38.119Z,32.34
2019-06-08T18:40:21.082Z,32.35
2019-06-08T18:43:09.049Z,32.33
2019-06-08T18:45:59.921Z,32.35
2019-06-08T18:48:49.364Z,32.34
2019-06-08T18:51:37.834Z,32.39
2019-06-08T18:54:21.954Z,32.37
2019-06-08T18:57:02.134Z,32.36
2019-06-08T18:59:47.001Z,32.34
2019-06-08T19:02:29.076Z,32.34
2019-06-08T19:05:20.817Z,32.35
2019-06-08T19:08:06.956Z,32.36
2019-06-08T19:11:09.511Z,32.36
2019-06-08T19:13:58.074Z,32.38
2019-06-08T19:16:46.670Z,32.37
2019-06-08T19:19:36.774Z,32.36
2019-06-08T19:22:22.477Z,32.36
2019-06-08T19:25:04.201Z,32.33
2019-06-08T19:27:52.790Z,32.33
2019-06-08T19:30:34.620Z,32.32
2019-06-08T19:33:13.934Z,32.33
2019-06-08T19:35:55.141Z,32.33
2019-06-08T19:38:39.652Z,32.33
2019-06-08T19:41:28.428Z,32.33
2019-06-08T19:44:07.527Z,32.37
2019-06-08T19:46:53.823Z,32.35
2019-06-08T19:49:35.638Z,32.33
2019-06-08T19:52:18.323Z,32.37
2019-06-08T19:55:11.739Z,32.35
2019-06-08T19:57:57.525Z,32.34
2019-06-08T20:00:42.382Z,32.33
2019-06-08T20:03:27.379Z,32.33
2019-06-08T20:06:14.395Z,32.36
2019-06-08T20:08:57.317Z,32.33
2019-06-08T20:11:44.152Z,32.33
2019-06-08T20:14:24.666Z,32.32
2019-06-08T20:17:02.434Z,32.30
2019-06-08T20:19:53.415Z,32.30
2019-06-08T20:22:38.619Z,32.30
2019-06-08T20:25:18.267Z,32.30
2019-06-08T20:27:59.622Z,32.30
2019-06-08T20:30:37.505Z,32.31
2019-06-08T20:33:16.048Z,32.37
2019-06-08T20:35:54.571Z,32.42
2019-06-08T20:38:38.554Z,32.42
2019-06-08T20:41:12.584Z,32.46
2019-06-08T20:43:52.132Z,32.48
2019-06-08T20:46:30.938Z,32.51
2019-06-08T20:49:08.493Z,32.51
2019-06-08T20:51:48.172Z,32.54
2019-06-08T20:54:27.867Z,32.56
2019-06-08T20:57:08.097Z,32.55
2019-06-08T20:59:48.132Z,32.57
2019-06-08T21:02:29.585Z,32.56
2019-06-08T21:05:08.137Z,32.54
2019-06-08T21:07:50.890Z,32.52
2019-06-08T21:10:38.996Z,32.53
2019-06-08T21:13:23.583Z,32.54
2019-06-08T21:16:07.369Z,32.57
2019-06-08T21:18:44.686Z,32.54
2019-06-08T21:21:28.135Z,32.49
2019-06-08T21:24:07.897Z,32.49
2019-06-08T21:26:50.810Z,32.47
2019-06-08T21:29:46.537Z,32.45
2019-06-08T21:32:09.793Z,32.42
2019-06-08T21:34:53.756Z,32.41
2019-06-08T21:37:33.390Z,32.40
2019-06-08T21:40:17.594Z,32.38
2019-06-08T21:43:01.105Z,32.38
2019-06-08T21:45:39.491Z,32.38
2019-06-08T21:48:27.383Z,32.36
2019-06-08T21:51:15.229Z,32.39
2019-06-08T21:53:58.745Z,32.38
2019-06-08T21:56:38.766Z,32.39
2019-06-08T21:59:18.404Z,32.38
2019-06-08T22:02:02.641Z,32.37
2019-06-08T22:04:42.890Z,32.38
2019-06-08T22:07:28.334Z,32.40
2019-06-08T22:10:10.744Z,32.41
2019-06-08T22:12:50.751Z,32.43
2019-06-08T22:15:37.897Z,32.44
2019-06-08T22:18:21.845Z,32.45
2019-06-08T22:21:08.067Z,32.50
2019-06-08T22:23:52.378Z,32.49
2019-06-08T22:26:58.015Z,32.54
2019-06-08T22:29:34.905Z,32.53
2019-06-08T22:32:15.228Z,32.54
2019-06-08T22:34:52.774Z,32.55
2019-06-08T22:37:42.689Z,32.56
2019-06-08T22:40:23.577Z,32.56
2019-06-08T22:43:08.271Z,32.62
2019-06-08T22:45:54.418Z,32.61
2019-06-08T22:48:44.829Z,32.63
2019-06-08T22:51:30.010Z,32.63
2019-06-08T22:54:14.433Z,32.65
2019-06-08T23:00:20.570Z,32.69
2019-06-08T23:03:05.165Z,32.69
2019-06-08T23:05:51.877Z,32.67
2019-06-08T23:08:33.610Z,32.62
2019-06-08T23:11:32.325Z,32.57
2019-06-08T23:14:14.874Z,32.53
2019-06-08T23:17:02.042Z,32.55
2019-06-08T23:19:54.998Z,32.47
2019-06-08T23:22:40.937Z,32.45
2019-06-08T23:25:43.629Z,32.44
2019-06-08T23:28:28.236Z,32.43
2019-06-08T23:31:31.295Z,32.42
2019-06-08T23:34:30.230Z,32.42
2019-06-08T23:37:12.961Z,32.40
2019-06-08T23:39:57.628Z,32.40
2019-06-08T23:42:55.239Z,32.39
2019-06-08T23:45:37.955Z,32.40
2019-06-08T23:48:52.509Z,32.40
2019-06-08T23:51:53.263Z,32.38
2019-06-08T23:55:09.723Z,32.42
